createdAt,value
2018-06-23T00:00:34.117Z,95188.18
2018-06-23T00:03:00.111Z,95191.52
2018-06-23T00:05:26.103Z,95185.41
2018-06-23T00:07:52.087Z,95196.85
2018-06-23T00:10:18.075Z,95196.66
2018-06-23T00:12:44.060Z,95202.59
2018-06-23T00:15:10.056Z,95192.50
2018-06-23T00:17:36.048Z,95193.08
2018-06-23T00:20:02.045Z,95194.06
2018-06-23T00:22:28.026Z,95195.84
2018-06-23T00:24:54.011Z,95197.63
2018-06-23T00:27:20.005Z,95198.21
2018-06-23T00:29:45.981Z,95212.05
2018-06-23T00:32:11.962Z,95211.84
2018-06-23T00:34:37.952Z,95219.17
2018-06-23T00:37:03.930Z,95215.83
2018-06-23T00:39:29.912Z,95219.17
2018-06-23T00:41:55.904Z,95214.22
2018-06-23T00:44:21.870Z,95214.80
2018-06-23T00:46:47.850Z,95216.98
2018-06-23T00:49:13.836Z,95220.33
2018-06-23T00:51:39.821Z,95228.63
2018-06-23T00:54:05.802Z,95222.32
2018-06-23T00:56:31.782Z,95217.96
2018-06-23T00:58:57.767Z,95227.25
2018-06-23T01:01:23.754Z,95232.98
2018-06-23T01:03:49.745Z,95226.47
2018-06-23T01:06:15.738Z,95226.64
2018-06-23T01:08:41.718Z,95235.52
2018-06-23T01:11:07.706Z,95239.30
2018-06-23T01:13:33.684Z,95240.69
2018-06-23T01:15:59.668Z,95236.53
2018-06-23T01:18:25.676Z,95231.38
2018-06-23T01:20:51.668Z,95230.19
2018-06-23T01:23:17.651Z,95229.61
2018-06-23T01:25:43.668Z,95231.00
2018-06-23T01:28:09.614Z,95231.75
2018-06-23T01:30:35.595Z,95239.30
2018-06-23T01:33:01.571Z,95239.47
2018-06-23T01:35:27.552Z,95241.26
2018-06-23T01:37:53.541Z,95236.70
2018-06-23T01:40:19.523Z,95234.52
2018-06-23T01:42:45.501Z,95236.10
2018-06-23T01:45:11.487Z,95243.39
2018-06-23T01:47:37.471Z,95245.58
2018-06-23T01:50:03.447Z,95251.32
2018-06-23T01:52:29.428Z,95247.17
2018-06-23T01:54:55.409Z,95251.69
2018-06-23T01:57:21.395Z,95250.92
2018-06-23T01:59:47.375Z,95250.11
2018-06-23T02:02:13.354Z,95248.33
2018-06-23T02:04:39.329Z,95254.66
2018-06-23T02:07:05.316Z,95255.24
2018-06-23T02:09:31.290Z,95261.35
2018-06-23T02:11:57.270Z,95262.94
2018-06-23T02:14:23.248Z,95278.33
2018-06-23T02:16:49.236Z,95277.59
2018-06-23T02:19:15.231Z,95277.59
2018-06-23T02:21:41.207Z,95282.31
2018-06-23T02:24:07.192Z,95280.92
2018-06-23T02:26:33.166Z,95284.67
2018-06-23T02:28:59.145Z,95291.59
2018-06-23T02:31:25.134Z,95291.77
2018-06-23T02:33:51.111Z,95293.14
2018-06-23T02:36:17.094Z,95297.30
2018-06-23T02:38:43.074Z,95297.30
2018-06-23T02:41:09.060Z,95297.50
2018-06-23T02:43:35.038Z,95295.34
2018-06-23T02:46:01.027Z,95296.70
2018-06-23T02:48:27.021Z,95292.55
2018-06-23T02:50:53.006Z,95290.58
2018-06-23T02:53:19.003Z,95293.73
2018-06-23T02:55:45.027Z,95301.62
2018-06-23T02:58:11.017Z,95302.03
2018-06-23T03:00:37.058Z,95305.77
2018-06-23T03:03:03.045Z,95319.61
2018-06-23T03:05:29.024Z,95321.20
2018-06-23T03:07:55.002Z,95338.58
2018-06-23T03:10:20.987Z,95325.55
2018-06-23T03:12:46.966Z,95330.67
2018-06-23T03:15:12.951Z,95342.32
2018-06-23T03:17:38.931Z,95345.66
2018-06-23T03:20:04.920Z,95350.42
2018-06-23T03:22:30.890Z,95354.74
2018-06-23T03:24:56.871Z,95355.14
2018-06-23T03:27:22.855Z,95355.95
2018-06-23T03:29:48.836Z,95354.34
2018-06-23T03:32:14.825Z,95364.72
2018-06-23T03:34:40.797Z,95362.96
2018-06-23T03:37:06.778Z,95377.20
2018-06-23T03:39:32.757Z,95378.41
2018-06-23T03:41:58.733Z,95385.19
2018-06-23T03:44:24.719Z,95376.48
2018-06-23T03:46:50.703Z,95379.83
2018-06-23T03:49:16.692Z,95378.41
2018-06-23T03:51:42.675Z,95379.22
2018-06-23T03:54:08.676Z,95370.05
2018-06-23T03:56:34.658Z,95377.62
2018-06-23T03:59:00.642Z,95377.16
2018-06-23T04:01:26.629Z,95381.72
2018-06-23T04:03:52.616Z,95382.86
2018-06-23T04:06:18.599Z,95377.13
2018-06-23T04:08:44.581Z,95373.18
2018-06-23T04:11:10.567Z,95372.20
2018-06-23T04:13:36.550Z,95376.92
2018-06-23T04:16:02.534Z,95379.75
2018-06-23T04:18:28.521Z,95381.48
2018-06-23T04:20:54.498Z,95383.09
2018-06-23T04:23:20.512Z,95387.05
2018-06-23T04:25:46.468Z,95394.23
2018-06-23T04:28:12.449Z,95396.67
2018-06-23T04:30:38.441Z,95384.47
2018-06-23T04:33:04.418Z,95382.17
2018-06-23T04:35:30.399Z,95389.33
2018-06-23T04:37:56.410Z,95386.25
2018-06-23T04:40:22.395Z,95390.27
2018-06-23T04:42:48.379Z,95397.14
2018-06-23T04:45:14.365Z,95395.69
2018-06-23T04:47:40.346Z,95403.65
2018-06-23T04:50:06.383Z,95402.47
2018-06-23T04:52:32.375Z,95403.38
2018-06-23T04:54:58.370Z,95406.72
2018-06-23T04:57:24.355Z,95401.73
2018-06-23T04:59:50.340Z,95406.86
2018-06-23T05:02:16.323Z,95409.72
2018-06-23T05:04:42.311Z,95408.70
2018-06-23T05:07:08.301Z,95408.33
2018-06-23T05:09:34.291Z,95407.50
2018-06-23T05:12:00.277Z,95411.44
2018-06-23T05:14:26.265Z,95420.75
2018-06-23T05:16:52.258Z,95411.24
2018-06-23T05:19:18.241Z,95427.67
2018-06-23T05:21:44.231Z,95434.18
2018-06-23T05:24:10.215Z,95430.80
2018-06-23T05:26:38.996Z,95434.58
2018-06-23T05:29:04.978Z,95439.71
2018-06-23T05:31:30.976Z,95446.22
2018-06-23T05:33:56.954Z,95452.56
2018-06-23T05:36:22.938Z,95457.29
2018-06-23T05:38:48.931Z,95467.98
2018-06-23T05:41:14.919Z,95465.59
2018-06-23T05:43:40.907Z,95470.31
2018-06-23T05:46:06.902Z,95471.49
2018-06-23T05:48:32.892Z,95471.90
2018-06-23T05:50:58.870Z,95472.67
2018-06-23T05:53:24.943Z,95473.28
2018-06-23T05:55:50.922Z,95463.94
2018-06-23T05:58:17.238Z,95464.98
2018-06-23T06:00:43.241Z,95475.23
2018-06-23T06:03:09.206Z,95478.58
2018-06-23T06:05:35.197Z,95479.16
2018-06-23T06:08:01.195Z,95482.73
2018-06-23T06:10:27.715Z,95492.28
2018-06-23T06:13:01.939Z,95488.70
2018-06-23T06:15:27.960Z,95488.87
2018-06-23T06:17:53.890Z,95482.73
2018-06-23T06:20:20.780Z,95479.97
2018-06-23T06:22:48.632Z,95474.02
2018-06-23T06:25:14.620Z,95475.00
2018-06-23T06:27:40.599Z,95480.53
2018-06-23T06:30:06.585Z,95480.87
2018-06-23T06:32:32.579Z,95477.33
2018-06-23T06:34:58.784Z,95473.34
2018-06-23T06:37:25.501Z,95475.30
2018-06-23T06:39:51.482Z,95475.54
2018-06-23T06:42:19.283Z,95477.66
2018-06-23T06:44:45.265Z,95474.36
2018-06-23T06:47:11.250Z,95476.72
2018-06-23T06:49:37.293Z,95480.58
2018-06-23T06:52:03.275Z,95480.23
2018-06-23T06:54:29.249Z,95484.95
2018-06-23T06:56:55.258Z,95483.30
2018-06-23T06:59:21.270Z,95487.80
2018-06-23T07:01:47.294Z,95487.08
2018-06-23T07:04:13.239Z,95485.70
2018-06-23T07:06:39.224Z,95483.10
2018-06-23T07:09:05.207Z,95489.07
2018-06-23T07:11:31.186Z,95488.13
2018-06-23T07:13:57.165Z,95484.42
2018-06-23T07:16:23.181Z,95475.55
2018-06-23T07:18:49.162Z,95471.80
2018-06-23T07:21:15.142Z,95482.26
2018-06-23T07:23:41.226Z,95474.94
2018-06-23T07:26:07.116Z,95484.18
2018-06-23T07:28:33.106Z,95480.87
2018-06-23T07:30:59.132Z,95484.18
2018-06-23T07:33:25.127Z,95479.66
2018-06-23T07:35:51.133Z,95471.59
2018-06-23T07:38:17.138Z,95479.89
2018-06-23T07:40:43.157Z,95479.49
2018-06-23T07:43:09.099Z,95490.36
2018-06-23T07:45:35.092Z,95498.76
2018-06-23T07:48:01.072Z,95497.55
2018-06-23T07:50:27.054Z,95493.56
2018-06-23T07:52:53.185Z,95488.03
2018-06-23T07:55:19.152Z,95491.00
2018-06-23T07:57:45.130Z,95489.58
2018-06-23T08:00:11.220Z,95492.72
2018-06-23T08:02:37.214Z,95485.56
2018-06-23T08:05:03.200Z,95490.29
2018-06-23T08:07:29.260Z,95484.38
2018-06-23T08:09:55.259Z,95480.61
2018-06-23T08:12:21.271Z,95485.53
2018-06-23T08:14:47.261Z,95484.92
2018-06-23T08:17:14.587Z,95491.27
2018-06-23T08:19:40.654Z,95481.75
2018-06-23T08:22:06.629Z,95488.67
2018-06-23T08:24:32.657Z,95483.91
2018-06-23T08:26:59.325Z,95490.83
2018-06-23T08:29:25.294Z,95490.42
2018-06-23T08:31:51.338Z,95487.45
2018-06-23T08:34:17.980Z,95488.63
2018-06-23T08:36:43.959Z,95489.44
2018-06-23T08:39:14.315Z,95487.05
2018-06-23T08:41:40.489Z,95478.91
2018-06-23T08:44:06.302Z,95478.55
2018-06-23T08:46:32.292Z,95477.73
2018-06-23T08:48:58.300Z,95470.61
2018-06-23T08:51:24.287Z,95481.68
2018-06-23T08:53:50.289Z,95478.95
2018-06-23T08:56:16.276Z,95473.25
2018-06-23T08:58:42.256Z,95462.79
2018-06-23T09:01:08.244Z,95462.18
2018-06-23T09:03:34.216Z,95466.13
2018-06-23T09:06:00.208Z,95468.49
2018-06-23T09:08:26.300Z,95457.42
2018-06-23T09:10:52.323Z,95465.32
2018-06-23T09:13:18.351Z,95462.55
2018-06-23T09:15:44.413Z,95465.32
2018-06-23T09:18:10.463Z,95461.17
2018-06-23T09:20:36.446Z,95468.29
2018-06-23T09:23:02.440Z,95459.02
2018-06-23T09:25:31.129Z,95458.03
2018-06-23T09:27:57.092Z,95463.16
2018-06-23T09:30:23.600Z,95475.98
2018-06-23T09:32:49.725Z,95465.89
2018-06-23T09:35:15.709Z,95470.61
2018-06-23T09:37:41.706Z,95469.80
2018-06-23T09:40:08.118Z,95472.17
2018-06-23T09:42:34.089Z,95473.95
2018-06-23T09:45:00.112Z,95468.63
2018-06-23T09:47:26.061Z,95466.84
2018-06-23T09:49:52.089Z,95465.45
2018-06-23T09:52:18.169Z,95459.34
2018-06-23T09:54:44.144Z,95452.80
2018-06-23T09:57:10.137Z,95445.69
2018-06-23T09:59:36.125Z,95447.64
2018-06-23T10:02:02.117Z,95442.92
2018-06-23T10:04:28.100Z,95440.96
2018-06-23T10:06:54.129Z,95444.50
2018-06-23T10:09:20.103Z,95440.55
2018-06-23T10:11:46.098Z,95437.39
2018-06-23T10:14:12.082Z,95438.37
2018-06-23T10:16:38.063Z,95433.23
2018-06-23T10:19:04.056Z,95436.07
2018-06-23T10:21:30.052Z,95436.84
2018-06-23T10:23:56.027Z,95419.61
2018-06-23T10:26:22.026Z,95431.48
2018-06-23T10:28:48.019Z,95424.16
2018-06-23T10:31:14.017Z,95420.99
2018-06-23T10:33:40.298Z,95412.52
2018-06-23T10:36:06.288Z,95409.59
2018-06-23T10:38:32.376Z,95409.39
2018-06-23T10:40:58.378Z,95406.63
2018-06-23T10:43:25.482Z,95395.95
2018-06-23T10:45:51.577Z,95385.47
2018-06-23T10:48:17.563Z,95385.47
2018-06-23T10:50:43.553Z,95381.69
2018-06-23T10:53:10.061Z,95389.79
2018-06-23T10:55:36.032Z,95383.08
2018-06-23T10:58:02.394Z,95380.88
2018-06-23T11:00:28.372Z,95373.39
2018-06-23T11:02:54.410Z,95369.81
2018-06-23T11:05:21.323Z,95370.62
2018-06-23T11:07:47.301Z,95377.54
2018-06-23T11:10:13.468Z,95367.28
2018-06-23T11:12:39.442Z,95358.17
2018-06-23T11:15:05.724Z,95350.69
2018-06-23T11:17:31.738Z,95352.64
2018-06-23T11:19:57.727Z,95349.88
2018-06-23T11:22:24.207Z,95340.41
2018-06-23T11:24:50.193Z,95338.78
2018-06-23T11:27:16.172Z,95340.57
2018-06-23T11:29:46.651Z,95336.02
2018-06-23T11:32:13.090Z,95334.64
2018-06-23T11:34:39.005Z,95334.03
2018-06-23T11:37:04.991Z,95327.52
2018-06-23T11:39:30.981Z,95326.71
2018-06-23T11:41:56.957Z,95326.54
2018-06-23T11:44:22.949Z,95323.37
2018-06-23T11:46:57.475Z,95325.73
2018-06-23T11:49:23.456Z,95318.98
2018-06-23T11:51:50.323Z,95321.95
2018-06-23T11:54:16.315Z,95326.71
2018-06-23T11:56:42.306Z,95317.44
2018-06-23T11:59:08.335Z,95319.22
2018-06-23T12:01:34.317Z,95324.75
2018-06-23T12:04:00.309Z,95318.81
2018-06-23T12:06:26.329Z,95313.28
2018-06-23T12:08:52.315Z,95308.73
2018-06-23T12:11:18.301Z,95308.73
2018-06-23T12:13:44.327Z,95303.77
2018-06-23T12:16:10.304Z,95302.39
2018-06-23T12:18:36.279Z,95293.08
2018-06-23T12:21:02.263Z,95301.78
2018-06-23T12:23:28.677Z,95303.00
2018-06-23T12:25:59.112Z,95294.30
2018-06-23T12:28:25.084Z,95292.71
2018-06-23T12:30:51.145Z,95283.64
2018-06-23T12:33:17.421Z,95293.69
2018-06-23T12:35:44.535Z,95293.11
2018-06-23T12:38:10.490Z,95287.18
2018-06-23T12:40:36.773Z,95299.86
2018-06-23T12:43:02.760Z,95293.14
2018-06-23T12:45:28.744Z,95292.13
2018-06-23T12:47:54.730Z,95281.88
2018-06-23T12:50:20.713Z,95278.13
2018-06-23T12:52:46.708Z,95281.67
2018-06-23T12:55:12.738Z,95267.44
2018-06-23T12:57:38.675Z,95270.61
2018-06-23T13:00:04.653Z,95273.98
2018-06-23T13:02:30.637Z,95285.63
2018-06-23T13:04:56.656Z,95281.07
2018-06-23T13:07:22.605Z,95270.98
2018-06-23T13:09:48.622Z,95271.97
2018-06-23T13:12:14.614Z,95269.81
2018-06-23T13:14:40.658Z,95255.98
2018-06-23T13:17:06.636Z,95261.10
2018-06-23T13:19:32.654Z,95261.88
2018-06-23T13:21:58.642Z,95262.69
2018-06-23T13:24:24.635Z,95269.40
2018-06-23T13:26:50.639Z,95277.09
2018-06-23T13:29:16.646Z,95263.67
2018-06-23T13:31:42.617Z,95260.91
2018-06-23T13:34:08.604Z,95265.86
2018-06-23T13:36:34.602Z,95268.80
2018-06-23T13:39:00.590Z,95269.20
2018-06-23T13:41:26.582Z,95266.67
2018-06-23T13:43:52.570Z,95270.00
2018-06-23T13:46:18.556Z,95266.84
2018-06-23T13:48:44.549Z,95262.11
2018-06-23T13:51:10.529Z,95260.16
2018-06-23T13:53:36.529Z,95263.53
2018-06-23T13:56:02.522Z,95256.38
2018-06-23T13:58:28.561Z,95256.38
2018-06-23T14:00:54.511Z,95256.78
2018-06-23T14:03:20.565Z,95258.37
2018-06-23T14:05:46.480Z,95260.53
2018-06-23T14:08:12.470Z,95254.02
2018-06-23T14:10:38.460Z,95258.37
2018-06-23T14:13:04.442Z,95258.14
2018-06-23T14:15:30.429Z,95253.98
2018-06-23T14:17:56.438Z,95252.80
2018-06-23T14:20:22.415Z,95247.27
2018-06-23T14:22:48.399Z,95235.58
2018-06-23T14:25:14.397Z,95241.72
2018-06-23T14:27:40.394Z,95242.70
2018-06-23T14:30:06.370Z,95233.02
2018-06-23T14:32:32.355Z,95238.14
2018-06-23T14:34:58.378Z,95239.12
2018-06-23T14:37:24.351Z,95235.14
2018-06-23T14:39:50.336Z,95233.39
2018-06-23T14:42:16.321Z,95239.30
2018-06-23T14:44:42.305Z,95236.16
2018-06-23T14:47:08.298Z,95239.90
2018-06-23T14:49:34.272Z,95229.61
2018-06-23T14:52:00.254Z,95233.77
2018-06-23T14:54:26.227Z,95233.19
2018-06-23T14:56:52.210Z,95234.16
2018-06-23T14:59:18.212Z,95235.14
2018-06-23T15:01:44.191Z,95235.38
2018-06-23T15:04:10.166Z,95244.83
2018-06-23T15:06:36.147Z,95240.67
2018-06-23T15:09:02.147Z,95245.23
2018-06-23T15:11:28.124Z,95244.25
2018-06-23T15:13:54.120Z,95243.07
2018-06-23T15:16:20.106Z,95245.84
2018-06-23T15:18:46.090Z,95258.28
2018-06-23T15:21:12.082Z,95256.69
2018-06-23T15:23:38.074Z,95254.70
2018-06-23T15:26:04.056Z,95255.69
2018-06-23T15:28:30.046Z,95258.63
2018-06-23T15:30:56.026Z,95258.19
2018-06-23T15:33:22.047Z,95260.75
2018-06-23T15:35:48.043Z,95271.41
2018-06-23T15:38:14.071Z,95268.05
2018-06-23T15:40:40.072Z,95266.05
2018-06-23T15:43:06.043Z,95269.05
2018-06-23T15:45:32.028Z,95261.22
2018-06-23T15:47:58.016Z,95258.08
2018-06-23T15:50:24.001Z,95265.40
2018-06-23T15:52:49.986Z,95266.23
2018-06-23T15:55:15.976Z,95272.37
2018-06-23T15:57:41.956Z,95277.36
2018-06-23T16:00:07.944Z,95276.31
2018-06-23T16:02:34.005Z,95283.98
2018-06-23T16:04:59.928Z,95277.70
2018-06-23T16:07:25.922Z,95285.02
2018-06-23T16:09:51.976Z,95282.42
2018-06-23T16:12:17.961Z,95280.81
2018-06-23T16:14:43.989Z,95287.72
2018-06-23T16:17:09.974Z,95291.09
2018-06-23T16:19:35.962Z,95289.31
2018-06-23T16:22:01.950Z,95294.06
2018-06-23T16:24:27.932Z,95294.84
2018-06-23T16:26:53.914Z,95298.98
2018-06-23T16:29:19.907Z,95298.19
2018-06-23T16:31:45.899Z,95302.16
2018-06-23T16:34:11.929Z,95311.23
2018-06-23T16:36:37.923Z,95309.10
2018-06-23T16:39:03.911Z,95312.51
2018-06-23T16:41:29.896Z,95314.49
2018-06-23T16:43:55.886Z,95310.20
2018-06-23T16:46:21.868Z,95310.98
2018-06-23T16:48:47.859Z,95314.49
2018-06-23T16:51:13.856Z,95325.19
2018-06-23T16:53:44.045Z,95321.23
2018-06-23T16:56:11.117Z,95320.80
2018-06-23T16:58:37.847Z,95322.19
2018-06-23T17:01:03.834Z,95322.39
2018-06-23T17:03:29.887Z,95325.91
2018-06-23T17:05:55.828Z,95331.23
2018-06-23T17:08:21.921Z,95330.42
2018-06-23T17:10:47.956Z,95337.52
2018-06-23T17:13:14.308Z,95338.25
2018-06-23T17:15:40.286Z,95338.66
2018-06-23T17:18:06.316Z,95343.78
2018-06-23T17:20:32.306Z,95338.08
2018-06-23T17:22:58.282Z,95337.84
2018-06-23T17:25:24.271Z,95338.05
2018-06-23T17:27:50.258Z,95345.95
2018-06-23T17:30:16.251Z,95346.34
2018-06-23T17:32:42.472Z,95357.41
2018-06-23T17:35:08.413Z,95361.77
2018-06-23T17:37:34.402Z,95356.57
2018-06-23T17:40:00.388Z,95354.17
2018-06-23T17:42:26.369Z,95356.94
2018-06-23T17:44:52.619Z,95359.70
2018-06-23T17:47:18.745Z,95358.91
2018-06-23T17:49:44.724Z,95357.89
2018-06-23T17:52:10.713Z,95360.45
2018-06-23T17:54:36.699Z,95369.73
2018-06-23T17:57:02.744Z,95369.53
2018-06-23T17:59:28.677Z,95367.37
2018-06-23T18:01:54.666Z,95370.09
2018-06-23T18:04:20.700Z,95371.65
2018-06-23T18:06:46.725Z,95373.47
2018-06-23T18:09:12.706Z,95372.86
2018-06-23T18:11:38.685Z,95380.55
2018-06-23T18:14:10.548Z,95381.73
2018-06-23T18:16:36.519Z,95373.84
2018-06-23T18:19:02.509Z,95377.39
2018-06-23T18:21:28.494Z,95382.55
2018-06-23T18:23:54.544Z,95388.08
2018-06-23T18:26:20.525Z,95381.91
2018-06-23T18:28:46.508Z,95389.05
2018-06-23T18:31:12.495Z,95392.97
2018-06-23T18:33:38.620Z,95395.33
2018-06-23T18:36:04.613Z,95401.66
2018-06-23T18:38:30.599Z,95400.08
2018-06-23T18:40:56.589Z,95405.58
2018-06-23T18:43:22.571Z,95408.34
2018-06-23T18:45:48.559Z,95409.32
2018-06-23T18:48:14.577Z,95414.81
2018-06-23T18:50:40.621Z,95418.97
2018-06-23T18:53:06.602Z,95423.52
2018-06-23T18:55:32.587Z,95425.03
2018-06-23T18:57:58.571Z,95430.97
2018-06-23T19:00:24.549Z,95435.52
2018-06-23T19:02:50.567Z,95440.85
2018-06-23T19:05:16.676Z,95445.60
2018-06-23T19:07:42.625Z,95447.77
2018-06-23T19:10:08.607Z,95443.01
2018-06-23T19:12:34.627Z,95452.11
2018-06-23T19:15:00.570Z,95455.45
2018-06-23T19:17:26.549Z,95453.09
2018-06-23T19:19:52.527Z,95458.63
2018-06-23T19:22:18.516Z,95460.41
2018-06-23T19:24:44.546Z,95465.70
2018-06-23T19:27:10.570Z,95465.94
2018-06-23T19:29:36.628Z,95475.62
2018-06-23T19:32:02.606Z,95463.95
2018-06-23T19:34:28.589Z,95460.00
2018-06-23T19:36:54.579Z,95464.55
2018-06-23T19:39:20.555Z,95468.09
2018-06-23T19:41:46.687Z,95465.94
2018-06-23T19:44:12.666Z,95461.95
2018-06-23T19:46:38.709Z,95459.59
2018-06-23T19:49:04.691Z,95465.33
2018-06-23T19:51:30.678Z,95463.95
2018-06-23T19:53:56.797Z,95470.48
2018-06-23T19:56:22.641Z,95460.41
2018-06-23T19:58:48.621Z,95462.36
2018-06-23T20:01:14.632Z,95462.97
2018-06-23T20:03:40.782Z,95462.40
2018-06-23T20:06:07.110Z,95463.17
2018-06-23T20:08:33.095Z,95461.15
2018-06-23T20:10:59.079Z,95464.69
2018-06-23T20:13:25.090Z,95460.33
2018-06-23T20:15:51.076Z,95459.73
2018-06-23T20:18:17.057Z,95458.14
2018-06-23T20:20:43.165Z,95465.46
2018-06-23T20:23:09.137Z,95462.50
2018-06-23T20:25:35.118Z,95472.14
2018-06-23T20:28:01.101Z,95472.34
2018-06-23T20:30:27.102Z,95476.08
2018-06-23T20:32:53.083Z,95477.29
2018-06-23T20:35:19.077Z,95478.03
2018-06-23T20:37:45.064Z,95480.80
2018-06-23T20:40:11.047Z,95478.64
2018-06-23T20:42:37.022Z,95479.21
2018-06-23T20:45:03.016Z,95474.66
2018-06-23T20:47:29.088Z,95468.16
2018-06-23T20:49:55.019Z,95469.12
2018-06-23T20:52:21.002Z,95470.11
2018-06-23T20:54:46.986Z,95467.14
2018-06-23T20:57:12.981Z,95467.91
2018-06-23T20:59:38.960Z,95473.07
2018-06-23T21:02:04.954Z,95467.30
2018-06-23T21:04:30.939Z,95470.27
2018-06-23T21:06:56.916Z,95468.69
2018-06-23T21:09:22.902Z,95466.49
2018-06-23T21:11:48.884Z,95471.82
2018-06-23T21:14:14.880Z,95471.42
2018-06-23T21:16:40.870Z,95472.22
2018-06-23T21:19:06.850Z,95471.82
2018-06-23T21:21:32.843Z,95469.05
2018-06-23T21:23:58.909Z,95471.01
2018-06-23T21:26:24.901Z,95472.59
2018-06-23T21:28:50.890Z,95472.59
2018-06-23T21:31:16.877Z,95467.64
2018-06-23T21:33:42.856Z,95469.99
2018-06-23T21:36:08.840Z,95468.20
2018-06-23T21:38:34.824Z,95470.57
2018-06-23T21:41:01.074Z,95470.57
2018-06-23T21:43:27.017Z,95467.03
2018-06-23T21:45:52.998Z,95473.33
2018-06-23T21:48:18.974Z,95473.94
2018-06-23T21:50:44.971Z,95478.25
2018-06-23T21:53:10.975Z,95472.89
2018-06-23T21:55:36.931Z,95465.98
2018-06-23T21:58:02.948Z,95461.27
2018-06-23T22:00:28.980Z,95463.22
2018-06-23T22:02:57.731Z,95463.05
2018-06-23T22:05:23.690Z,95464.59
2018-06-23T22:07:49.676Z,95456.09
2018-06-23T22:10:15.650Z,95460.08
2018-06-23T22:12:41.636Z,95462.44
2018-06-23T22:15:07.617Z,95460.25
2018-06-23T22:17:33.638Z,95460.81
2018-06-23T22:19:59.644Z,95464.97
2018-06-23T22:22:25.609Z,95461.02
2018-06-23T22:24:51.584Z,95458.83
2018-06-23T22:27:17.571Z,95462.61
2018-06-23T22:29:43.563Z,95459.80
2018-06-23T22:32:09.558Z,95457.44
2018-06-23T22:34:35.573Z,95461.59
2018-06-23T22:37:01.530Z,95466.95
2018-06-23T22:39:27.508Z,95465.56
2018-06-23T22:41:53.487Z,95459.19
2018-06-23T22:44:19.494Z,95459.59
2018-06-23T22:46:45.478Z,95455.86
2018-06-23T22:49:11.455Z,95457.23
2018-06-23T22:51:37.437Z,95456.02
2018-06-23T22:54:03.425Z,95455.63
2018-06-23T22:56:29.409Z,95460.17
2018-06-23T22:58:55.393Z,95456.84
2018-06-23T23:01:21.381Z,95451.67
2018-06-23T23:03:47.366Z,95448.09
2018-06-23T23:06:13.342Z,95447.90
2018-06-23T23:08:39.328Z,95451.47
2018-06-23T23:11:05.308Z,95450.45
2018-06-23T23:13:31.294Z,95455.58
2018-06-23T23:15:57.288Z,95449.65
2018-06-23T23:18:23.255Z,95456.16
2018-06-23T23:20:49.242Z,95442.53
2018-06-23T23:23:15.223Z,95449.84
2018-06-23T23:25:41.204Z,95449.45
2018-06-23T23:28:07.181Z,95442.13
2018-06-23T23:30:33.163Z,95440.34
2018-06-23T23:32:59.147Z,95441.16
2018-06-23T23:35:25.133Z,95432.62
2018-06-23T23:37:51.125Z,95437.17
2018-06-23T23:40:17.101Z,95428.87
2018-06-23T23:42:43.088Z,95426.31
2018-06-23T23:45:09.068Z,95422.58
2018-06-23T23:47:35.046Z,95418.02
2018-06-23T23:50:01.038Z,95419.98
2018-06-23T23:52:27.023Z,95422.34
2018-06-23T23:54:52.998Z,95423.14
2018-06-23T23:57:18.983Z,95423.95
2018-06-23T23:59:44.968Z,95430.23
